Time;durP1;ratioP1;P1;durP2;ratioP2;P2;SDS_P1;SDS_P2;PMS_P1;PMS_P2;Temp;Humidity;BMP_temperature;BMP_pressure;BME280_temperature;BME280_humidity;BME280_pressure;Samples;Min_cycle;Max_cycle;Signal;HPM_P1;HPM_P2
2023/11/20 09:50:32;;;;;;;1.80;0.93;;;;;;;10.92;100.00;98475.59;5121260;27;20886;-85
2023/11/20 09:53:00;;;;;;;1.30;0.80;;;;;;;11.66;100.00;98488.81;5070050;28;39945;-89
2023/11/20 09:55:28;;;;;;;1.37;0.80;;;;;;;12.28;100.00;98491.31;5087384;28;41766;-89
2023/11/20 09:57:56;;;;;;;2.43;1.00;;;;;;;12.82;100.00;98486.25;5069377;28;44422;-82
2023/11/20 10:00:24;;;;;;;0.80;0.77;;;;;;;13.48;97.54;98481.06;5085794;28;43362;-83
2023/11/20 10:02:53;;;;;;;1.10;0.80;;;;;;;13.95;91.79;98467.44;5087116;28;38902;-85
2023/11/20 10:05:24;;;;;;;1.33;0.70;;;;;;;15.02;87.27;98463.69;5087009;28;41750;-85
2023/11/20 10:07:58;;;;;;;2.97;0.73;;;;;;;17.69;75.17;98512.09;5083835;28;42732;-84
2023/11/20 10:10:28;;;;;;;0.50;0.40;;;;;;;17.64;68.60;98514.41;5086748;28;41176;-84
2023/11/20 10:12:59;;;;;;;1.10;0.70;;;;;;;19.06;62.92;98514.44;5071307;28;39095;-83
2023/11/20 10:15:28;;;;;;;2.40;0.80;;;;;;;20.01;59.22;98538.47;5071527;28;40277;-83
2023/11/20 10:17:56;;;;;;;1.43;0.60;;;;;;;20.79;54.63;98550.53;5071206;28;41875;-83
2023/11/20 10:20:23;;;;;;;0.97;0.67;;;;;;;20.90;53.47;98519.75;5089197;28;42638;-85
2023/11/20 10:22:51;;;;;;;2.13;1.00;;;;;;;21.67;54.28;98545.22;5073174;28;38661;-83
2023/11/20 10:25:20;;;;;;;2.40;0.70;;;;;;;21.97;51.31;98526.59;5090277;28;40789;-83
2023/11/20 10:27:47;;;;;;;1.10;0.60;;;;;;;22.32;50.64;98539.56;5079479;28;41628;-85
2023/11/20 10:30:15;;;;;;;0.73;0.70;;;;;;;21.88;50.20;98564.34;5070406;28;42008;-86
2023/11/20 10:32:43;;;;;;;2.03;0.83;;;;;;;21.34;49.30;98530.19;5087259;28;39368;-85
2023/11/20 10:35:15;;;;;;;1.33;0.70;;;;;;;21.85;49.42;98553.94;5087805;28;42038;-88
2023/11/20 10:37:52;;;;;;;2.10;0.90;;;;;;;21.58;48.96;98554.34;5070568;28;41879;-85
2023/11/20 10:40:22;;;;;;;1.27;0.70;;;;;;;20.94;48.98;98531.03;5050321;28;41141;-84
2023/11/20 10:42:49;;;;;;;1.00;0.60;;;;;;;20.22;50.93;98517.34;5065462;28;40786;-86
2023/11/20 10:45:17;;;;;;;1.30;0.63;;;;;;;19.55;51.88;98515.59;5067162;28;41080;-85
2023/11/20 10:47:45;;;;;;;1.73;0.80;;;;;;;18.90;53.21;98494.56;5086214;28;41803;-85
2023/11/20 10:50:15;;;;;;;1.33;0.80;;;;;;;18.48;53.89;98494.34;5069192;28;41638;-87
2023/11/20 10:52:44;;;;;;;2.60;1.07;;;;;;;18.27;54.61;98502.72;5086489;28;40216;-85
2023/11/20 10:55:12;;;;;;;2.07;0.90;;;;;;;18.40;54.98;98501.50;5068495;28;44267;-86
2023/11/20 10:57:41;;;;;;;2.77;1.00;;;;;;;18.35;55.03;98493.06;5086496;28;43579;-87
2023/11/20 11:00:12;;;;;;;2.27;0.90;;;;;;;18.02;54.60;98487.38;5065074;28;41376;-87
2023/11/20 11:02:44;;;;;;;1.80;1.20;;;;;;;17.75;56.09;98496.28;5072558;28;40239;-87
2023/11/20 11:05:13;;;;;;;3.07;1.10;;;;;;;17.48;56.81;98497.09;5054154;28;41312;-86
2023/11/20 11:07:42;;;;;;;1.87;0.87;;;;;;;17.19;57.38;98472.28;5055641;28;41813;-86
2023/11/20 11:10:11;;;;;;;1.00;0.80;;;;;;;17.20;58.31;98473.97;5054884;28;41319;-86
2023/11/20 11:12:42;;;;;;;1.50;0.80;;;;;;;17.08;58.45;98475.97;5056713;28;40113;-87
2023/11/20 11:15:12;;;;;;;2.37;0.70;;;;;;;16.88;58.71;98475.22;5054204;28;41065;-84
2023/11/20 11:17:46;;;;;;;3.00;0.97;;;;;;;16.69;58.93;98475.22;5073606;28;43233;-86
2023/11/20 11:20:18;;;;;;;1.87;1.00;;;;;;;16.41;60.09;98465.41;5072476;28;42367;-84
2023/11/20 11:22:55;;;;;;;2.50;1.20;;;;;;;15.92;62.14;98440.53;5056146;28;38917;-86
2023/11/20 11:25:26;;;;;;;6.17;1.27;;;;;;;15.58;64.88;98456.06;5055362;28;40739;-86
2023/11/20 11:27:57;;;;;;;4.73;1.50;;;;;;;15.27;67.82;98441.06;5069323;28;42714;-84
2023/11/20 11:30:27;;;;;;;2.90;1.33;;;;;;;15.02;69.04;98411.22;5054861;28;42084;-85
2023/11/20 11:33:33;;;;;;;2.30;0.90;;;;;;;15.07;70.55;98424.16;5073098;28;42265;-86
2023/11/20 11:36:22;;;;;;;2.33;1.03;;;;;;;15.10;71.21;98418.53;5055046;28;42179;-84
2023/11/20 11:39:13;;;;;;;1.87;1.00;;;;;;;15.03;71.96;98428.06;5071065;28;42798;-84
2023/11/20 11:41:46;;;;;;;2.87;0.80;;;;;;;14.85;72.50;98421.66;5053836;28;42548;-84
2023/11/20 11:44:27;;;;;;;2.53;1.00;;;;;;;14.68;72.98;98423.97;5054373;28;40126;-84
2023/11/20 11:46:56;;;;;;;5.20;0.93;;;;;;;14.45;73.33;98406.44;5051721;28;41848;-85
2023/11/20 11:49:24;;;;;;;1.17;0.70;;;;;;;14.28;74.35;98391.00;5071031;28;43067;-88
2023/11/20 11:51:55;;;;;;;3.40;0.80;;;;;;;14.32;75.72;98398.63;5054038;28;42188;-89
2023/11/20 11:54:24;;;;;;;1.17;0.90;;;;;;;14.54;76.60;98397.66;5054452;28;41764;-90
2023/11/20 11:56:59;;;;;;;2.60;0.90;;;;;;;14.55;77.58;98402.00;5054903;28;42546;-85
2023/11/20 11:59:44;;;;;;;0.83;0.63;;;;;;;14.62;77.85;98412.97;5054480;28;41770;-82
2023/11/20 12:02:17;;;;;;;5.43;1.13;;;;;;;14.43;78.05;98392.41;5053008;28;41052;-84
2023/11/20 12:05:04;;;;;;;1.90;0.83;;;;;;;14.31;78.63;98386.28;5054038;28;39456;-87
2023/11/20 12:07:49;;;;;;;0.97;0.73;;;;;;;14.27;79.43;98382.16;5068898;28;42514;-91
2023/11/20 12:10:17;;;;;;;2.83;0.53;;;;;;;14.40;79.44;98381.16;5053534;28;42902;-91
2023/11/20 12:13:06;;;;;;;0.57;0.53;;;;;;;14.52;80.10;98374.78;5071172;28;40843;-87
2023/11/20 12:15:37;;;;;;;2.87;0.73;;;;;;;14.59;78.86;98371.44;5055234;28;40212;-84
2023/11/20 12:18:10;;;;;;;1.57;0.60;;;;;;;14.76;78.31;98374.47;5055445;28;42883;-88
2023/11/20 12:20:37;;;;;;;2.00;0.60;;;;;;;15.58;76.50;98385.84;5054932;28;43003;-89
2023/11/20 12:23:08;;;;;;;2.47;0.67;;;;;;;17.10;69.10;98398.25;5055381;28;41216;-88
2023/11/20 12:25:37;;;;;;;0.47;0.47;;;;;;;18.40;64.09;98400.44;5071974;28;39949;-89
2023/11/20 12:28:07;;;;;;;2.63;0.80;;;;;;;20.97;54.48;98421.16;5055322;28;40843;-87
2023/11/20 12:30:37;;;;;;;1.93;0.70;;;;;;;19.77;54.39;98421.00;5054950;28;42617;-83
2023/11/20 12:33:07;;;;;;;2.20;0.70;;;;;;;19.04;57.34;98420.66;5055070;28;41207;-85
2023/11/20 12:35:34;;;;;;;3.73;0.70;;;;;;;20.09;56.87;98409.44;5072140;28;39153;-84
2023/11/20 12:38:03;;;;;;;2.33;0.67;;;;;;;19.84;53.10;98429.22;5054964;28;43515;-89
2023/11/20 12:40:31;;;;;;;0.83;0.57;;;;;;;19.76;52.76;98437.28;5071156;28;43023;-86
2023/11/20 12:42:59;;;;;;;0.87;0.60;;;;;;;19.26;53.51;98424.63;5053362;28;41275;-87
2023/11/20 12:45:27;;;;;;;2.00;0.60;;;;;;;19.86;52.80;98421.84;5070691;28;38875;-87
2023/11/20 12:47:56;;;;;;;0.60;0.60;;;;;;;20.51;50.60;98432.69;5070774;28;42702;-86
2023/11/20 12:50:25;;;;;;;0.90;0.67;;;;;;;20.68;50.81;98424.41;5070246;28;45158;-88
2023/11/20 12:52:54;;;;;;;1.03;0.50;;;;;;;20.15;50.31;98441.03;5053873;28;41890;-86
2023/11/20 12:55:22;;;;;;;0.93;0.70;;;;;;;19.63;50.54;98429.69;5053289;28;39091;-89
2023/11/20 12:57:54;;;;;;;2.37;0.70;;;;;;;18.94;52.11;98403.81;5054382;28;42256;-90
2023/11/20 13:00:23;;;;;;;3.07;0.90;;;;;;;18.37;52.97;98394.56;5053626;28;42029;-89
2023/11/20 13:02:58;;;;;;;3.33;0.80;;;;;;;17.81;54.57;98387.69;5053952;28;41137;-87
2023/11/20 13:05:27;;;;;;;3.97;0.90;;;;;;;17.37;55.75;98390.22;5053848;28;39142;-85
2023/11/20 13:08:01;;;;;;;1.27;0.70;;;;;;;16.97;56.83;98365.66;5070776;28;41826;-87
2023/11/20 13:10:31;;;;;;;1.90;0.90;;;;;;;16.76;57.46;98382.78;5067252;28;43727;-86
2023/11/20 13:13:05;;;;;;;1.47;0.90;;;;;;;16.51;57.78;98362.00;5055988;28;41944;-87
2023/11/20 13:15:36;;;;;;;1.23;0.70;;;;;;;16.38;58.53;98350.78;5073865;28;40281;-86
2023/11/20 13:18:06;;;;;;;2.40;0.63;;;;;;;16.38;57.43;98359.63;5080855;28;41834;-83
2023/11/20 13:20:40;;;;;;;3.27;1.10;;;;;;;16.53;58.27;98349.34;5067966;28;41481;-82
2023/11/20 13:23:19;;;;;;;3.67;1.33;;;;;;;16.58;58.22;98355.06;5068679;28;43211;-85
2023/11/20 13:25:49;;;;;;;1.13;0.77;;;;;;;16.58;58.09;98368.44;5069690;28;40088;-84
2023/11/20 13:28:18;;;;;;;4.70;1.63;;;;;;;16.60;58.06;98374.47;5069353;28;42768;-84
2023/11/20 13:31:01;;;;;;;2.37;1.40;;;;;;;16.48;58.82;98367.63;5053660;28;41832;-83
2023/11/20 13:33:31;;;;;;;1.37;0.83;;;;;;;16.15;59.85;98343.09;5053768;28;40976;-83
2023/11/20 13:36:01;;;;;;;4.93;1.03;;;;;;;15.83;60.50;98321.19;5053735;28;39310;-91
2023/11/20 13:38:31;;;;;;;4.37;1.50;;;;;;;15.65;60.86;98347.75;5070500;28;41591;-85
2023/11/20 13:40:59;;;;;;;1.53;0.73;;;;;;;15.43;61.09;98356.00;5053575;28;41692;-88
2023/11/20 13:43:28;;;;;;;2.40;0.90;;;;;;;15.20;62.10;98334.06;5053157;28;41169;-85
2023/11/20 13:45:56;;;;;;;1.50;0.90;;;;;;;15.08;62.63;98329.84;5053781;28;39026;-86
2023/11/20 13:48:25;;;;;;;2.13;1.03;;;;;;;15.01;62.62;98348.19;5053274;28;41268;-87
2023/11/20 13:50:55;;;;;;;3.67;1.20;;;;;;;14.93;63.16;98333.84;5054048;28;43002;-88
2023/11/20 13:53:24;;;;;;;1.17;0.67;;;;;;;14.62;63.72;98309.88;5052804;28;43042;-89
2023/11/20 13:55:52;;;;;;;1.60;0.90;;;;;;;14.55;64.67;98316.75;5070722;28;40065;-85
2023/11/20 13:58:24;;;;;;;3.10;0.90;;;;;;;14.41;65.28;98329.56;5053152;28;42337;-84
2023/11/20 14:00:52;;;;;;;2.13;0.80;;;;;;;14.13;65.58;98296.44;5053508;28;41920;-85
2023/11/20 14:03:20;;;;;;;1.80;1.03;;;;;;;14.06;66.15;98308.59;5052766;28;41476;-85
2023/11/20 14:05:48;;;;;;;0.83;0.80;;;;;;;13.82;66.31;98283.09;5070026;28;40547;-88
2023/11/20 14:08:18;;;;;;;3.43;1.00;;;;;;;13.88;66.74;98295.03;5052786;28;40804;-88
2023/11/20 14:10:48;;;;;;;4.27;0.90;;;;;;;13.84;67.40;98294.47;5053254;28;43226;-87
2023/11/20 14:13:16;;;;;;;2.47;0.87;;;;;;;13.86;67.80;98287.16;5071322;28;42542;-85
2023/11/20 14:15:44;;;;;;;2.97;1.30;;;;;;;13.99;67.36;98314.44;5054202;28;38759;-82
2023/11/20 14:18:12;;;;;;;1.63;0.90;;;;;;;14.10;67.45;98313.50;5053623;28;42918;-84
2023/11/20 14:20:40;;;;;;;2.33;1.00;;;;;;;14.30;67.24;98309.16;5070710;28;43036;-83
2023/11/20 14:23:07;;;;;;;2.00;0.90;;;;;;;14.84;66.11;98314.16;5070086;28;41295;-83
2023/11/20 14:25:36;;;;;;;2.57;1.07;;;;;;;15.07;64.45;98320.16;5053958;28;39189;-81
2023/11/20 14:28:04;;;;;;;2.67;0.90;;;;;;;14.95;64.74;98303.41;5071075;28;41831;-82
2023/11/20 14:30:32;;;;;;;1.37;0.77;;;;;;;14.86;64.88;98308.69;5053086;28;41888;-81
2023/11/20 14:33:00;;;;;;;3.67;1.27;;;;;;;14.76;65.22;98302.50;5052373;28;42237;-86
2023/11/20 14:35:27;;;;;;;2.20;0.77;;;;;;;14.72;65.10;98299.25;5054213;28;38937;-88
2023/11/20 14:37:55;;;;;;;1.07;0.67;;;;;;;14.78;65.11;98305.88;5073134;28;41726;-87
2023/11/20 14:40:22;;;;;;;1.87;0.70;;;;;;;14.77;65.72;98309.53;5055874;28;41759;-87
2023/11/20 14:42:52;;;;;;;1.10;0.90;;;;;;;14.77;65.82;98304.19;5056031;28;42473;-87
2023/11/20 14:45:19;;;;;;;2.60;1.07;;;;;;;14.72;66.23;98294.75;5055934;28;39818;-86
2023/11/20 14:47:49;;;;;;;2.03;0.80;;;;;;;14.63;66.49;98295.59;5058878;28;41310;-84
2023/11/20 14:50:19;;;;;;;1.70;0.80;;;;;;;14.51;66.47;98294.00;5064575;28;41718;-89
2023/11/20 14:52:48;;;;;;;2.03;1.00;;;;;;;14.35;66.96;98293.59;5066889;28;43878;-86
2023/11/20 14:55:16;;;;;;;3.30;1.20;;;;;;;14.15;66.72;98291.81;5067238;28;38982;-84
2023/11/20 14:57:46;;;;;;;2.07;0.60;;;;;;;13.84;67.21;98275.84;5081388;28;42175;-85
2023/11/20 15:00:17;;;;;;;2.47;1.33;;;;;;;13.71;67.71;98280.50;5065422;28;41834;-85
2023/11/20 15:02:47;;;;;;;2.27;1.17;;;;;;;13.47;68.56;98277.25;5059915;28;41029;-85
2023/11/20 15:05:16;;;;;;;1.80;1.20;;;;;;;13.40;68.89;98284.03;5055099;28;39945;-89
2023/11/20 15:07:44;;;;;;;3.40;2.00;;;;;;;13.12;69.87;98275.63;5055663;28;40966;-90
2023/11/20 15:10:14;;;;;;;1.60;1.20;;;;;;;13.13;70.19;98300.41;5055039;28;42462;-86
2023/11/20 15:12:42;;;;;;;2.97;1.60;;;;;;;12.96;70.38;98280.53;5039676;28;41335;-85
2023/11/20 15:15:11;;;;;;;3.60;1.57;;;;;;;12.99;70.78;98306.84;5056121;28;40086;-90
2023/11/20 15:17:42;;;;;;;2.33;1.77;;;;;;;12.76;71.19;98278.63;5056914;28;40682;-87
2023/11/20 15:20:13;;;;;;;3.33;1.20;;;;;;;12.77;71.34;98309.53;5056522;28;46062;-85
2023/11/20 15:22:43;;;;;;;1.43;1.20;;;;;;;12.58;71.59;98287.13;5055791;28;41771;-88
2023/11/20 15:25:10;;;;;;;2.27;0.93;;;;;;;12.57;71.98;98289.91;5055469;28;38982;-86
2023/11/20 15:27:39;;;;;;;3.27;1.00;;;;;;;12.64;72.21;98307.03;5054050;28;40726;-84
2023/11/20 15:30:08;;;;;;;1.73;1.40;;;;;;;12.55;72.45;98297.13;5071049;28;41852;-84
2023/11/20 15:32:35;;;;;;;3.63;1.40;;;;;;;12.68;71.95;98307.63;5054289;28;43814;-85
2023/11/20 15:35:06;;;;;;;2.40;1.30;;;;;;;12.56;71.74;98289.03;5054551;28;39940;-85
2023/11/20 15:37:33;;;;;;;1.63;1.27;;;;;;;12.56;71.69;98289.03;5071717;28;40806;-85
2023/11/20 15:40:01;;;;;;;3.17;1.10;;;;;;;12.69;71.48;98310.16;5054505;28;41723;-85
2023/11/20 15:42:29;;;;;;;1.23;0.83;;;;;;;12.67;71.40;98313.91;5072788;28;43462;-83
2023/11/20 15:44:57;;;;;;;2.10;1.10;;;;;;;12.62;71.51;98300.13;5071573;28;38979;-85
2023/11/20 15:47:25;;;;;;;2.07;0.80;;;;;;;12.65;71.35;98297.25;5071720;28;42848;-84
2023/11/20 15:49:53;;;;;;;1.20;0.70;;;;;;;12.63;71.21;98299.16;5054217;28;41806;-84
2023/11/20 15:52:22;;;;;;;0.90;0.60;;;;;;;12.69;71.49;98309.31;5054599;28;42278;-83
2023/11/20 15:54:51;;;;;;;1.43;0.70;;;;;;;12.80;71.44;98322.59;5071487;28;40076;-84
2023/11/20 15:57:19;;;;;;;1.43;0.80;;;;;;;12.66;71.36;98298.94;5054658;28;40915;-87
2023/11/20 15:59:46;;;;;;;2.70;1.00;;;;;;;12.71;71.45;98307.38;5071736;28;42684;-87
2023/11/20 16:02:14;;;;;;;0.80;0.60;;;;;;;12.73;71.11;98301.00;5054698;28;42519;-88
2023/11/20 16:04:42;;;;;;;1.23;0.60;;;;;;;12.70;71.22;98300.38;5071590;28;41392;-89
2023/11/20 16:07:10;;;;;;;0.73;0.60;;;;;;;12.53;72.01;98283.97;5058465;28;41022;-86
2023/11/20 16:09:40;;;;;;;0.93;0.80;;;;;;;12.49;72.10;98287.81;5073604;28;43114;-84
2023/11/20 16:12:09;;;;;;;1.43;1.00;;;;;;;12.47;72.44;98310.19;5075956;28;42223;-84
2023/11/20 16:14:37;;;;;;;2.03;0.83;;;;;;;12.36;72.73;98287.13;5064088;28;39149;-84
2023/11/20 16:17:05;;;;;;;1.37;0.70;;;;;;;12.35;73.17;98298.72;5055765;28;40467;-87
2023/11/20 16:19:32;;;;;;;0.90;0.90;;;;;;;12.23;73.97;98283.75;5072343;28;42869;-84
2023/11/20 16:22:00;;;;;;;2.03;1.00;;;;;;;12.36;73.81;98302.22;5055849;28;41597;-84
2023/11/20 16:24:28;;;;;;;0.67;0.67;;;;;;;12.14;73.90;98265.88;5070847;28;40026;-87
2023/11/20 16:26:57;;;;;;;2.57;0.90;;;;;;;12.29;74.73;98296.53;5054548;28;42304;-88
2023/11/20 16:29:25;;;;;;;2.50;1.17;;;;;;;12.29;74.93;98296.53;5054819;28;41739;-91
2023/11/20 16:31:57;;;;;;;3.20;1.10;;;;;;;12.30;74.75;98295.56;5054436;28;42105;-87
2023/11/20 16:34:24;;;;;;;1.73;1.03;;;;;;;12.21;75.13;98286.53;5070222;28;39903;-86
2023/11/20 16:36:53;;;;;;;1.50;0.80;;;;;;;12.17;75.58;98273.59;5054154;28;40823;-89
2023/11/20 16:39:21;;;;;;;2.50;1.23;;;;;;;12.22;75.45;98287.38;5052707;28;43187;-88
2023/11/20 16:41:49;;;;;;;1.27;0.90;;;;;;;12.29;75.50;98301.84;5054785;28;42113;-89
2023/11/20 16:44:20;;;;;;;2.50;1.07;;;;;;;12.27;75.47;98298.47;5071649;28;39979;-89
2023/11/20 16:46:48;;;;;;;2.67;0.90;;;;;;;12.15;75.42;98283.50;5054562;28;41119;-91
2023/11/20 16:49:16;;;;;;;1.90;1.10;;;;;;;12.09;75.44;98278.66;5053864;28;41820;-87
2023/11/20 16:51:43;;;;;;;1.23;0.80;;;;;;;12.04;75.48;98278.16;5054702;28;41582;-89
2023/11/20 16:54:11;;;;;;;3.17;0.93;;;;;;;12.14;75.91;98303.88;5054441;28;38982;-90
2023/11/20 16:56:39;;;;;;;3.90;1.10;;;;;;;12.07;76.09;98281.44;5054568;28;44432;-90
2023/11/20 16:59:07;;;;;;;2.73;1.10;;;;;;;12.08;76.34;98282.28;5070147;28;41863;-89
2023/11/20 17:01:36;;;;;;;2.47;1.00;;;;;;;12.09;76.39;98283.97;5071704;28;42931;-88
2023/11/20 17:04:04;;;;;;;2.40;1.00;;;;;;;12.14;76.29;98298.56;5071132;28;39058;-89
2023/11/20 17:06:31;;;;;;;1.97;1.20;;;;;;;12.12;76.74;98289.03;5054637;28;40662;-87
2023/11/20 17:08:59;;;;;;;3.57;1.20;;;;;;;12.17;76.51;98294.84;5053877;28;44316;-87
2023/11/20 17:11:26;;;;;;;3.50;1.20;;;;;;;12.24;76.51;98314.63;5071125;28;42183;-88
2023/11/20 17:13:54;;;;;;;1.40;1.17;;;;;;;12.17;76.32;98308.09;5072580;28;39255;-89
2023/11/20 17:16:21;;;;;;;5.27;1.30;;;;;;;12.15;78.19;98328.59;5055716;28;40748;-89
2023/11/20 17:18:50;;;;;;;2.90;1.00;;;;;;;12.02;79.19;98314.59;5055382;28;43230;-92
2023/11/20 17:21:18;;;;;;;1.03;0.90;;;;;;;11.70;80.70;98279.91;5071899;28;43629;-88
2023/11/20 17:23:45;;;;;;;1.80;0.80;;;;;;;11.65;81.59;98285.53;5055360;28;38852;-88
2023/11/20 17:26:12;;;;;;;2.63;0.80;;;;;;;11.48;82.14;98272.72;5055146;28;41789;-87
2023/11/20 17:28:41;;;;;;;3.57;1.00;;;;;;;11.47;82.59;98276.34;5055051;28;42987;-87
2023/11/20 17:31:08;;;;;;;1.10;0.97;;;;;;;11.43;83.03;98274.88;5055026;28;41203;-87
